Time;durP1;ratioP1;P1;durP2;ratioP2;P2;SDS_P1;SDS_P2;PMS_P1;PMS_P2;Temp;Humidity;BMP_temperature;BMP_pressure;BME280_temperature;BME280_humidity;BME280_pressure;Samples;Min_cycle;Max_cycle;Signal;HPM_P1;HPM_P2
2021/09/04 00:00:11;;;;;;;24.00;12.57;;;14.90;99.90;;;;;;5052338;28;20425;-57
2021/09/04 00:02:37;;;;;;;20.58;12.43;;;14.70;99.90;;;;;;5053501;28;20373;-57
2021/09/04 00:05:03;;;;;;;22.77;13.70;;;14.70;99.90;;;;;;5053041;28;20412;-58
2021/09/04 00:07:30;;;;;;;19.88;13.48;;;14.70;99.90;;;;;;5053161;28;20390;-57
2021/09/04 00:09:56;;;;;;;19.37;13.47;;;14.60;99.90;;;;;;5052672;28;20403;-58
2021/09/04 00:12:22;;;;;;;21.52;13.45;;;14.60;99.90;;;;;;5053529;28;20942;-58
2021/09/04 00:14:48;;;;;;;19.70;13.10;;;14.60;99.90;;;;;;5053431;28;20404;-57
2021/09/04 00:17:14;;;;;;;19.33;13.37;;;14.60;99.90;;;;;;5052262;28;20415;-58
2021/09/04 00:19:40;;;;;;;19.05;13.00;;;14.60;99.90;;;;;;5053013;28;20759;-58
2021/09/04 00:22:05;;;;;;;19.58;12.07;;;14.50;99.90;;;;;;5052375;28;20408;-57
2021/09/04 00:24:31;;;;;;;20.60;13.17;;;14.40;99.90;;;;;;5053139;28;20921;-58
2021/09/04 00:26:57;;;;;;;19.95;12.38;;;14.30;99.90;;;;;;5052539;28;20396;-58
2021/09/04 00:29:22;;;;;;;21.00;13.10;;;14.30;99.90;;;;;;5052748;28;20373;-58
2021/09/04 00:31:48;;;;;;;18.97;13.00;;;14.40;99.90;;;;;;5053071;28;20480;-58
2021/09/04 00:34:15;;;;;;;18.90;12.80;;;14.30;99.90;;;;;;5052083;28;20484;-57
2021/09/04 00:36:41;;;;;;;21.60;13.17;;;14.30;99.90;;;;;;5052672;28;20381;-58
2021/09/04 00:39:07;;;;;;;19.27;12.30;;;14.20;99.90;;;;;;5051915;28;20755;-58
2021/09/04 00:41:34;;;;;;;18.98;12.38;;;14.10;99.90;;;;;;5052721;28;20794;-58
2021/09/04 00:44:01;;;;;;;20.30;12.80;;;14.00;99.90;;;;;;5051956;28;20432;-58
2021/09/04 00:46:26;;;;;;;22.00;12.60;;;14.00;99.90;;;;;;5052791;28;20389;-57
2021/09/04 00:48:52;;;;;;;22.70;13.55;;;13.90;99.90;;;;;;5052373;28;21127;-59
2021/09/04 00:51:18;;;;;;;20.75;13.25;;;13.90;99.90;;;;;;5052270;28;20391;-59
2021/09/04 00:53:44;;;;;;;20.60;12.80;;;14.00;99.90;;;;;;5052324;28;20751;-59
2021/09/04 00:56:14;;;;;;;21.90;13.83;;;14.00;99.90;;;;;;5051865;28;20516;-57
2021/09/04 00:58:40;;;;;;;19.55;13.55;;;14.00;99.90;;;;;;5052477;28;20718;-59
2021/09/04 01:01:06;;;;;;;18.98;12.30;;;14.00;99.90;;;;;;5051673;28;20504;-58
2021/09/04 01:03:31;;;;;;;20.33;13.70;;;14.00;99.90;;;;;;5052806;28;20472;-58
2021/09/04 01:05:57;;;;;;;23.98;13.88;;;14.00;99.90;;;;;;5050179;28;20409;-58
2021/09/04 01:08:23;;;;;;;20.60;13.40;;;13.90;99.90;;;;;;5052058;28;20397;-59
2021/09/04 01:10:52;;;;;;;20.67;12.65;;;13.80;99.90;;;;;;5052208;28;20835;-59
2021/09/04 01:13:19;;;;;;;19.50;12.52;;;13.70;99.90;;;;;;5051744;28;20381;-59
2021/09/04 01:15:46;;;;;;;19.02;12.13;;;13.70;99.90;;;;;;5051998;28;20393;-59
2021/09/04 01:18:13;;;;;;;18.65;11.98;;;13.80;99.90;;;;;;5051219;28;20495;-59
2021/09/04 01:20:39;;;;;;;19.27;11.65;;;13.80;99.90;;;;;;5052243;28;20514;-58
2021/09/04 01:23:05;;;;;;;17.20;11.27;;;13.80;99.90;;;;;;5051117;28;20837;-57
2021/09/04 01:25:32;;;;;;;16.27;10.48;;;13.80;99.90;;;;;;5052057;28;20427;-58
2021/09/04 01:28:00;;;;;;;18.30;11.35;;;13.80;99.90;;;;;;5051179;28;20380;-58
2021/09/04 01:30:27;;;;;;;19.17;11.35;;;13.80;99.90;;;;;;5051873;28;20867;-59
2021/09/04 01:32:52;;;;;;;16.67;10.85;;;13.90;99.90;;;;;;5051618;28;20443;-59
2021/09/04 01:35:22;;;;;;;17.60;10.43;;;13.90;99.90;;;;;;5051596;28;20468;-58
2021/09/04 01:37:48;;;;;;;19.08;11.43;;;13.80;99.90;;;;;;5051747;28;20838;-59
2021/09/04 01:40:14;;;;;;;18.03;10.80;;;13.80;99.90;;;;;;5050965;28;20386;-59
2021/09/04 01:42:41;;;;;;;19.20;11.10;;;13.60;99.90;;;;;;5051541;28;20381;-57
2021/09/04 01:45:08;;;;;;;21.73;11.50;;;13.50;99.90;;;;;;5049658;28;20490;-58
2021/09/04 01:47:33;;;;;;;17.37;10.87;;;13.50;99.90;;;;;;5051401;28;20463;-59
2021/09/04 01:49:59;;;;;;;20.02;12.25;;;13.50;99.90;;;;;;5050750;28;20867;-59
2021/09/04 01:52:25;;;;;;;17.50;11.20;;;13.40;99.90;;;;;;5051683;28;20389;-59
2021/09/04 01:54:52;;;;;;;19.65;11.88;;;13.50;99.90;;;;;;5051460;28;20396;-59
2021/09/04 01:57:19;;;;;;;18.07;10.63;;;13.50;99.90;;;;;;5050906;28;20713;-59
2021/09/04 01:59:46;;;;;;;16.97;10.90;;;13.40;99.90;;;;;;5051653;28;20877;-58
2021/09/04 02:02:12;;;;;;;17.77;11.68;;;13.40;99.90;;;;;;5050772;28;20461;-58
2021/09/04 02:04:38;;;;;;;17.58;10.55;;;13.40;99.90;;;;;;5051359;28;20401;-58
2021/09/04 02:07:04;;;;;;;19.07;11.30;;;13.40;99.90;;;;;;5082732;28;21172;-59
2021/09/04 02:09:30;;;;;;;18.98;11.00;;;13.40;99.90;;;;;;5051323;28;20374;-58
2021/09/04 02:11:57;;;;;;;20.30;11.20;;;13.50;99.90;;;;;;5050433;28;20384;-59
2021/09/04 02:14:23;;;;;;;20.50;10.50;;;13.50;99.90;;;;;;5051252;28;20393;-58
2021/09/04 02:16:48;;;;;;;21.00;11.40;;;13.40;99.90;;;;;;5049037;28;20420;-58
2021/09/04 02:19:14;;;;;;;18.65;11.40;;;13.40;99.90;;;;;;5050184;28;20381;-58
2021/09/04 02:21:40;;;;;;;16.73;10.47;;;13.40;99.90;;;;;;5050957;28;20377;-58
2021/09/04 02:24:05;;;;;;;15.33;10.33;;;13.40;99.90;;;;;;5049865;28;20559;-59
2021/09/04 02:26:31;;;;;;;18.70;11.73;;;13.40;99.90;;;;;;5050659;28;20393;-58
2021/09/04 02:28:58;;;;;;;17.13;11.40;;;13.40;99.90;;;;;;5049701;28;20378;-59
2021/09/04 02:31:24;;;;;;;17.05;10.70;;;13.40;99.90;;;;;;5049591;28;20382;-58
2021/09/04 02:33:54;;;;;;;18.55;11.50;;;13.40;99.90;;;;;;5050779;28;20528;-58
2021/09/04 02:36:20;;;;;;;17.37;10.83;;;13.30;99.90;;;;;;5050937;28;20382;-59
2021/09/04 02:38:46;;;;;;;19.52;12.02;;;13.30;99.90;;;;;;5051007;28;20421;-58
2021/09/04 02:41:12;;;;;;;17.90;11.30;;;13.20;99.90;;;;;;5050459;28;20523;-58
2021/09/04 02:43:39;;;;;;;17.02;11.20;;;13.20;99.90;;;;;;5051187;28;20381;-57
2021/09/04 02:46:04;;;;;;;16.38;10.85;;;13.10;99.90;;;;;;5049912;28;20433;-57
2021/09/04 02:48:30;;;;;;;21.10;11.80;;;13.10;99.90;;;;;;5050629;28;20386;-57
2021/09/04 02:50:56;;;;;;;18.45;12.30;;;13.10;99.90;;;;;;5049957;28;20382;-58
2021/09/04 02:53:21;;;;;;;20.73;11.95;;;12.90;99.90;;;;;;5050400;28;20500;-59
2021/09/04 02:55:53;;;;;;;19.30;12.30;;;13.00;99.90;;;;;;5050676;28;20385;-58
2021/09/04 02:58:19;;;;;;;20.63;12.00;;;13.00;99.90;;;;;;5082303;28;20389;-59
2021/09/04 03:00:44;;;;;;;20.92;11.90;;;13.10;99.90;;;;;;5050290;28;20712;-58
2021/09/04 03:03:10;;;;;;;21.37;12.73;;;13.10;99.90;;;;;;5049539;28;20377;-59
2021/09/04 03:05:36;;;;;;;20.25;11.45;;;13.10;99.90;;;;;;5050168;28;20413;-57
2021/09/04 03:08:03;;;;;;;20.65;11.75;;;13.10;99.90;;;;;;5049201;28;20396;-58
2021/09/04 03:10:29;;;;;;;18.02;10.52;;;13.10;99.90;;;;;;5050176;28;20386;-58
2021/09/04 03:12:55;;;;;;;19.23;11.75;;;13.00;99.90;;;;;;5049344;28;20409;-59
2021/09/04 03:15:21;;;;;;;20.65;11.77;;;12.90;99.90;;;;;;5050113;28;20396;-58
2021/09/04 03:17:47;;;;;;;18.08;11.40;;;13.00;99.90;;;;;;5049590;28;20461;-59
2021/09/04 03:20:12;;;;;;;18.30;11.27;;;13.00;99.90;;;;;;5049188;28;21224;-57
2021/09/04 03:22:38;;;;;;;19.90;12.00;;;13.10;99.90;;;;;;5049943;28;20852;-58
2021/09/04 03:25:05;;;;;;;18.13;12.40;;;13.10;99.90;;;;;;5049164;28;20872;-59
2021/09/04 03:27:31;;;;;;;18.73;11.70;;;13.20;99.90;;;;;;5049840;28;20709;-59
2021/09/04 03:29:57;;;;;;;19.45;12.23;;;13.10;99.90;;;;;;5048466;28;20409;-58
2021/09/04 03:32:23;;;;;;;18.60;12.10;;;13.10;99.90;;;;;;5049571;28;20381;-59
2021/09/04 03:34:50;;;;;;;22.48;12.48;;;13.10;99.90;;;;;;5050055;28;20394;-58
2021/09/04 03:37:15;;;;;;;20.10;12.60;;;13.00;99.90;;;;;;5049120;28;20378;-58
2021/09/04 03:39:41;;;;;;;22.47;11.93;;;13.00;99.90;;;;;;5049394;28;20461;-58
2021/09/04 03:42:06;;;;;;;19.55;11.70;;;13.00;99.90;;;;;;5049029;28;20453;-58
2021/09/04 03:44:32;;;;;;;19.87;12.60;;;12.90;99.90;;;;;;5050027;28;20841;-58
2021/09/04 03:46:59;;;;;;;19.30;12.00;;;12.90;99.90;;;;;;5048891;28;20472;-58
2021/09/04 03:49:25;;;;;;;17.77;11.65;;;13.00;99.90;;;;;;5049982;28;20381;-57
2021/09/04 03:51:50;;;;;;;16.17;10.80;;;13.00;99.90;;;;;;5049730;28;20377;-57
2021/09/04 03:54:16;;;;;;;18.60;11.30;;;12.90;99.90;;;;;;5048636;28;21001;-57
2021/09/04 03:56:41;;;;;;;19.23;12.30;;;12.80;99.90;;;;;;5049271;28;20851;-58
2021/09/04 03:59:07;;;;;;;18.70;12.10;;;12.80;99.90;;;;;;5048794;28;20378;-58
2021/09/04 04:01:33;;;;;;;18.25;11.75;;;12.70;99.90;;;;;;5049264;28;20484;-57
2021/09/04 04:03:59;;;;;;;22.57;11.60;;;12.70;99.90;;;;;;5048614;28;20428;-58
2021/09/04 04:06:25;;;;;;;19.60;11.75;;;12.50;99.90;;;;;;5049888;28;20801;-57
2021/09/04 04:08:50;;;;;;;20.90;12.00;;;12.50;99.90;;;;;;5049330;28;20390;-57
2021/09/04 04:11:16;;;;;;;20.23;11.70;;;12.60;99.90;;;;;;5048655;28;20439;-58
2021/09/04 04:13:42;;;;;;;18.60;12.07;;;12.70;99.90;;;;;;5049514;28;20450;-58
2021/09/04 04:16:08;;;;;;;17.83;11.43;;;12.70;99.90;;;;;;5048410;28;20401;-59
2021/09/04 04:18:34;;;;;;;21.27;12.40;;;12.70;99.90;;;;;;5049224;28;20404;-58
2021/09/04 04:21:00;;;;;;;20.85;12.45;;;12.60;99.90;;;;;;5048716;28;20863;-58
2021/09/04 04:23:26;;;;;;;21.37;12.90;;;12.60;99.90;;;;;;5048973;28;20434;-59
2021/09/04 04:25:52;;;;;;;22.88;13.02;;;12.50;99.90;;;;;;5049235;28;20413;-59
2021/09/04 04:28:19;;;;;;;20.88;13.77;;;12.60;99.90;;;;;;5048586;28;20493;-59
2021/09/04 04:30:45;;;;;;;19.75;13.30;;;12.60;99.90;;;;;;5049206;28;20385;-58
2021/09/04 04:33:11;;;;;;;22.23;14.70;;;12.60;99.90;;;;;;5048350;28;20855;-58
2021/09/04 04:35:37;;;;;;;23.42;14.68;;;12.60;99.90;;;;;;5049347;28;20387;-58
2021/09/04 04:38:04;;;;;;;22.88;14.82;;;12.50;99.90;;;;;;5048121;28;20473;-58
2021/09/04 04:40:29;;;;;;;24.23;15.18;;;12.40;99.90;;;;;;5050776;28;20445;-59
2021/09/04 04:42:55;;;;;;;20.02;13.48;;;12.40;99.90;;;;;;5052831;28;20919;-58
2021/09/04 04:45:21;;;;;;;23.57;14.87;;;12.40;99.90;;;;;;5052053;28;20913;-59
2021/09/04 04:47:47;;;;;;;23.17;14.43;;;12.40;99.90;;;;;;5053051;28;20401;-58
2021/09/04 04:50:15;;;;;;;21.83;13.50;;;12.30;99.90;;;;;;5052353;28;20396;-59
2021/09/04 04:52:41;;;;;;;23.67;14.77;;;12.30;99.90;;;;;;5052748;28;20385;-59
2021/09/04 04:55:07;;;;;;;21.13;14.25;;;12.30;99.90;;;;;;5051885;28;20513;-59
2021/09/04 04:57:32;;;;;;;21.92;14.30;;;12.20;99.90;;;;;;5052533;28;20469;-59
2021/09/04 04:59:58;;;;;;;27.52;16.02;;;12.30;99.90;;;;;;5051687;28;20393;-59
2021/09/04 05:02:23;;;;;;;23.23;14.73;;;12.40;99.90;;;;;;5052412;28;20875;-59
2021/09/04 05:04:49;;;;;;;25.53;14.80;;;12.40;99.90;;;;;;5052273;28;20397;-59
2021/09/04 05:07:15;;;;;;;24.63;14.85;;;12.40;99.90;;;;;;5051764;28;20929;-58
2021/09/04 05:09:40;;;;;;;23.07;14.80;;;12.50;99.90;;;;;;5052379;28;20412;-57
2021/09/04 05:12:06;;;;;;;23.93;14.30;;;12.50;99.90;;;;;;5051539;28;20389;-59
2021/09/04 05:14:32;;;;;;;23.00;14.27;;;12.60;99.90;;;;;;5052122;28;20518;-58
2021/09/04 05:16:57;;;;;;;23.73;13.90;;;12.60;99.90;;;;;;5051274;28;20413;-59
2021/09/04 05:19:23;;;;;;;22.85;13.90;;;12.70;99.90;;;;;;5052411;28;20443;-58
2021/09/04 05:21:49;;;;;;;23.47;13.40;;;12.80;99.90;;;;;;5084520;28;20382;-58
2021/09/04 05:24:14;;;;;;;23.57;14.27;;;12.80;99.90;;;;;;5051338;28;20401;-59
2021/09/04 05:26:40;;;;;;;23.83;15.27;;;12.80;99.90;;;;;;5052885;28;20377;-58
2021/09/04 05:29:06;;;;;;;21.33;13.60;;;12.90;99.90;;;;;;5051390;28;20377;-59
2021/09/04 05:31:31;;;;;;;20.27;13.80;;;12.90;99.90;;;;;;5052619;28;20378;-59
2021/09/04 05:33:58;;;;;;;22.00;13.83;;;13.00;99.90;;;;;;5052238;28;20389;-58
2021/09/04 05:36:23;;;;;;;22.10;14.32;;;13.10;99.90;;;;;;5052693;28;20409;-58
2021/09/04 05:38:49;;;;;;;22.17;13.98;;;13.20;99.90;;;;;;5051732;28;20439;-58
2021/09/04 05:41:15;;;;;;;21.80;14.18;;;13.40;99.90;;;;;;5051241;28;20465;-58
2021/09/04 05:43:40;;;;;;;22.20;14.60;;;13.60;99.90;;;;;;5051884;28;20851;-59
2021/09/04 05:46:06;;;;;;;20.83;14.20;;;13.80;99.90;;;;;;5050980;28;20452;-59
2021/09/04 05:48:32;;;;;;;22.20;14.50;;;13.90;99.90;;;;;;5053383;28;20403;-59
2021/09/04 05:50:57;;;;;;;23.80;14.30;;;13.90;99.90;;;;;;5064354;28;20395;-58
2021/09/04 05:53:23;;;;;;;21.00;13.80;;;13.80;99.90;;;;;;5070169;28;20384;-57
2021/09/04 05:55:48;;;;;;;21.20;13.50;;;13.90;99.90;;;;;;5071118;28;20399;-59
2021/09/04 05:58:14;;;;;;;22.77;13.80;;;13.90;99.90;;;;;;5070512;28;20384;-58
2021/09/04 06:00:40;;;;;;;20.95;13.98;;;14.00;99.90;;;;;;5070017;28;20375;-58
2021/09/04 06:03:06;;;;;;;19.15;13.25;;;14.30;99.90;;;;;;5069876;28;20719;-57
2021/09/04 06:05:32;;;;;;;18.93;12.07;;;15.00;99.90;;;;;;5070757;28;20476;-57
2021/09/04 06:07:57;;;;;;;20.53;11.20;;;16.30;99.90;;;;;;5070922;28;20812;-60
2021/09/04 06:10:23;;;;;;;14.68;9.80;;;17.90;99.90;;;;;;5069919;28;20388;-58
2021/09/04 06:12:49;;;;;;;18.00;10.70;;;19.80;99.90;;;;;;5071075;28;20387;-58
2021/09/04 06:15:15;;;;;;;16.40;10.10;;;21.20;99.90;;;;;;5069664;28;20436;-58
2021/09/04 06:17:40;;;;;;;18.73;10.70;;;22.50;99.90;;;;;;5070695;28;20498;-57
2021/09/04 06:20:09;;;;;;;15.23;9.85;;;23.00;99.90;;;;;;5069416;28;20395;-59
2021/09/04 06:22:35;;;;;;;15.32;10.40;;;24.00;99.90;;;;;;5070974;28;20395;-58
2021/09/04 06:25:01;;;;;;;15.70;10.80;;;24.60;99.90;;;;;;5069599;28;20406;-58
2021/09/04 06:27:26;;;;;;;14.95;11.20;;;24.30;99.90;;;;;;5070116;28;20384;-58
2021/09/04 06:29:52;;;;;;;15.17;10.90;;;24.10;99.90;;;;;;5069126;28;20943;-59
2021/09/04 06:32:18;;;;;;;16.20;10.93;;;23.90;99.90;;;;;;5069658;28;20379;-59
2021/09/04 06:34:43;;;;;;;15.20;11.10;;;24.70;99.90;;;;;;5070362;28;20380;-60
2021/09/04 06:37:09;;;;;;;16.00;11.37;;;24.80;99.90;;;;;;5069267;28;20388;-59
2021/09/04 06:39:35;;;;;;;15.05;11.55;;;24.80;99.90;;;;;;5070408;28;20396;-59
2021/09/04 06:42:01;;;;;;;18.52;13.50;;;25.30;99.90;;;;;;5069416;28;20383;-57
2021/09/04 06:44:27;;;;;;;16.20;14.05;;;26.10;99.90;;;;;;5070284;28;20816;-58
2021/09/04 06:46:53;;;;;;;17.00;14.10;;;26.50;99.10;;;;;;5069899;28;20404;-57
2021/09/04 06:49:18;;;;;;;17.47;15.57;;;27.00;97.50;;;;;;5069373;28;20389;-57
2021/09/04 06:51:44;;;;;;;16.57;14.87;;;27.50;95.90;;;;;;5069730;28;20790;-57
2021/09/04 06:54:10;;;;;;;16.60;14.53;;;27.10;95.20;;;;;;5067751;28;20388;-57
2021/09/04 06:56:35;;;;;;;15.87;11.60;;;27.10;95.00;;;;;;5068776;28;20415;-57
2021/09/04 06:59:01;;;;;;;16.47;12.90;;;27.30;94.80;;;;;;5069041;28;20384;-57
2021/09/04 07:01:27;;;;;;;16.60;14.80;;;27.50;93.40;;;;;;5068283;28;20746;-58
2021/09/04 07:03:52;;;;;;;19.20;14.10;;;26.90;94.40;;;;;;5069646;28;20511;-55
2021/09/04 07:06:18;;;;;;;17.53;14.00;;;25.70;95.30;;;;;;5069032;28;20928;-55
2021/09/04 07:08:43;;;;;;;16.47;13.80;;;26.40;95.90;;;;;;5069575;28;20764;-55
2021/09/04 07:11:09;;;;;;;18.15;15.35;;;26.60;95.20;;;;;;5069290;28;20392;-55
2021/09/04 07:13:35;;;;;;;16.55;14.65;;;27.50;94.40;;;;;;5069585;28;20408;-55
2021/09/04 07:16:01;;;;;;;15.45;11.40;;;27.30;94.10;;;;;;5068505;28;20390;-56
2021/09/04 07:18:26;;;;;;;19.55;17.55;;;27.70;93.40;;;;;;5069552;28;20395;-55
2021/09/04 07:20:53;;;;;;;15.32;12.00;;;27.60;93.10;;;;;;5068906;28;20465;-56
2021/09/04 07:23:19;;;;;;;16.77;14.20;;;27.50;93.70;;;;;;5068563;28;20432;-57
2021/09/04 07:25:45;;;;;;;17.02;15.20;;;28.00;93.00;;;;;;5069591;28;20407;-57
2021/09/04 07:28:11;;;;;;;17.23;15.43;;;27.90;93.10;;;;;;5068594;28;20430;-58
2021/09/04 07:30:37;;;;;;;16.70;11.65;;;28.00;92.80;;;;;;5069702;28;20398;-58
2021/09/04 07:33:03;;;;;;;15.88;14.00;;;28.60;91.70;;;;;;5068686;28;20410;-58
2021/09/04 07:35:29;;;;;;;14.55;10.40;;;28.80;91.10;;;;;;5069284;28;20380;-60
2021/09/04 07:37:54;;;;;;;15.57;9.95;;;29.00;90.50;;;;;;5068799;28;20388;-60
2021/09/04 07:40:20;;;;;;;15.25;10.73;;;29.00;90.00;;;;;;5068107;28;20399;-60
2021/09/04 07:42:46;;;;;;;17.38;11.68;;;30.00;86.10;;;;;;5069116;28;20437;-60
2021/09/04 07:45:12;;;;;;;17.35;12.05;;;30.90;83.30;;;;;;5068405;28;20449;-61
2021/09/04 07:47:38;;;;;;;16.13;11.73;;;31.30;80.70;;;;;;5069097;28;20419;-60
2021/09/04 07:50:05;;;;;;;15.50;11.50;;;30.40;81.10;;;;;;5068459;28;20384;-60
2021/09/04 07:52:31;;;;;;;15.20;10.85;;;30.60;81.30;;;;;;5069188;28;20384;-60
2021/09/04 07:54:58;;;;;;;16.17;13.27;;;31.10;81.20;;;;;;5069544;28;20453;-61
2021/09/04 07:57:24;;;;;;;17.92;11.50;;;31.40;77.70;;;;;;5068532;28;20400;-60
2021/09/04 07:59:50;;;;;;;15.38;10.23;;;32.10;73.90;;;;;;5069096;28;21078;-60
2021/09/04 08:02:15;;;;;;;16.45;10.80;;;32.30;73.60;;;;;;5068208;28;20388;-60
2021/09/04 08:04:41;;;;;;;14.83;11.23;;;33.00;70.00;;;;;;5068780;28;20506;-61
2021/09/04 08:07:06;;;;;;;14.40;9.82;;;33.00;70.00;;;;;;5067954;28;20379;-61
2021/09/04 08:09:32;;;;;;;14.27;10.38;;;33.50;66.90;;;;;;5069329;28;20737;-61
2021/09/04 08:11:58;;;;;;;13.97;10.13;;;32.90;66.70;;;;;;5069074;28;20379;-60
2021/09/04 08:14:23;;;;;;;14.40;10.77;;;32.30;68.80;;;;;;5068029;28;20826;-61
2021/09/04 08:16:49;;;;;;;15.40;11.98;;;32.50;66.70;;;;;;5072305;28;20412;-61
2021/09/04 08:19:15;;;;;;;14.40;9.77;;;32.60;66.30;;;;;;5072687;28;20376;-60
2021/09/04 08:21:40;;;;;;;12.98;9.55;;;33.20;63.30;;;;;;5072548;28;20379;-61
2021/09/04 08:24:06;;;;;;;13.07;8.87;;;33.40;63.50;;;;;;5072010;28;20879;-61
2021/09/04 08:26:32;;;;;;;12.20;9.43;;;33.90;62.30;;;;;;5072796;28;20864;-60
2021/09/04 08:28:58;;;;;;;13.77;10.27;;;34.30;59.50;;;;;;5072586;28;20885;-60
2021/09/04 08:31:23;;;;;;;13.30;10.27;;;34.50;57.90;;;;;;5072104;28;20899;-60
2021/09/04 08:33:49;;;;;;;13.48;8.63;;;34.90;57.30;;;;;;5072235;28;20470;-61
2021/09/04 08:36:15;;;;;;;13.97;8.93;;;34.90;56.10;;;;;;5071968;28;20419;-60
2021/09/04 08:38:47;;;;;;;13.23;8.37;;;34.90;56.00;;;;;;5072332;28;20849;-60
2021/09/04 08:41:13;;;;;;;14.45;11.65;;;34.90;54.70;;;;;;5071605;28;20578;-60
2021/09/04 08:43:39;;;;;;;11.60;8.70;;;34.40;55.10;;;;;;5072230;28;20471;-60
2021/09/04 08:46:05;;;;;;;12.75;9.02;;;34.20;55.30;;;;;;5071323;28;20423;-60
2021/09/04 08:48:32;;;;;;;15.27;9.35;;;34.70;55.20;;;;;;5072134;28;20391;-60
2021/09/04 08:50:58;;;;;;;13.65;9.25;;;34.60;55.60;;;;;;5071913;28;20376;-61
2021/09/04 08:53:26;;;;;;;15.33;8.93;;;34.10;54.20;;;;;;5071009;28;20391;-60
2021/09/04 08:55:51;;;;;;;12.70;8.73;;;34.10;54.40;;;;;;5071969;28;20458;-61
2021/09/04 08:58:17;;;;;;;11.73;9.30;;;34.70;55.10;;;;;;5070629;28;20470;-60
2021/09/04 09:00:44;;;;;;;12.88;8.80;;;35.40;52.70;;;;;;5072204;28;20427;-60
2021/09/04 09:03:20;;;;;;;13.27;9.60;;;36.30;51.80;;;;;;5071335;28;20376;-60
2021/09/04 09:05:45;;;;;;;13.68;9.98;;;36.00;51.50;;;;;;5071867;28;20419;-62
2021/09/04 09:08:21;;;;;;;13.80;9.77;;;35.20;53.10;;;;;;5071451;28;20387;-60
2021/09/04 09:10:47;;;;;;;13.13;9.50;;;34.70;52.90;;;;;;5071585;28;20429;-60
2021/09/04 09:13:17;;;;;;;12.32;9.07;;;34.80;53.10;;;;;;5069759;28;20392;-61
2021/09/04 09:15:43;;;;;;;13.17;8.80;;;34.80;52.20;;;;;;5071904;28;20457;-60
2021/09/04 09:18:11;;;;;;;12.43;8.87;;;35.60;50.50;;;;;;5070691;28;20885;-60
2021/09/04 09:20:41;;;;;;;13.68;9.25;;;37.30;48.70;;;;;;5071437;28;20403;-60
2021/09/04 09:23:12;;;;;;;12.15;8.60;;;38.30;47.40;;;;;;5070670;28;20471;-60
2021/09/04 09:25:40;;;;;;;11.82;7.90;;;37.40;48.00;;;;;;5071661;28;20403;-60
2021/09/04 09:28:16;;;;;;;13.97;7.30;;;36.30;49.30;;;;;;5069705;28;20398;-60
2021/09/04 09:30:47;;;;;;;11.25;7.82;;;36.70;48.20;;;;;;5071482;28;20384;-60
2021/09/04 09:33:15;;;;;;;11.05;7.68;;;36.50;47.90;;;;;;5070486;28;20780;-60
2021/09/04 09:35:52;;;;;;;11.50;7.75;;;37.10;46.90;;;;;;5070435;28;20387;-60
2021/09/04 09:38:20;;;;;;;11.05;6.75;;;37.00;46.30;;;;;;5070404;28;20384;-60
2021/09/04 09:40:52;;;;;;;9.83;6.40;;;36.80;47.30;;;;;;5071121;28;20407;-60
2021/09/04 09:43:23;;;;;;;9.75;6.78;;;37.70;45.40;;;;;;5070518;28;20380;-60
2021/09/04 09:45:48;;;;;;;9.70;6.40;;;38.00;45.70;;;;;;5071075;28;20435;-60
2021/09/04 09:48:21;;;;;;;10.50;6.70;;;38.90;42.70;;;;;;5070306;28;20869;-60
2021/09/04 09:50:47;;;;;;;11.70;6.80;;;39.20;41.90;;;;;;5071081;28;20376;-60
2021/09/04 09:53:13;;;;;;;9.27;6.70;;;39.00;41.60;;;;;;5070453;28;20434;-61
2021/09/04 09:55:44;;;;;;;10.50;6.40;;;38.80;42.30;;;;;;5070805;28;20376;-60
2021/09/04 09:58:10;;;;;;;13.60;11.75;;;37.30;42.60;;;;;;5070051;28;20897;-60
2021/09/04 10:00:36;;;;;;;14.30;13.00;;;35.90;45.50;;;;;;5069264;28;20395;-60
2021/09/04 10:03:06;;;;;;;12.50;11.30;;;35.20;46.70;;;;;;5071155;28;20380;-61
2021/09/04 10:05:32;;;;;;;12.35;11.15;;;35.40;45.90;;;;;;5070456;28;20423;-60
2021/09/04 10:07:58;;;;;;;12.30;11.10;;;35.70;45.60;;;;;;5070729;28;20683;-60
2021/09/04 10:10:32;;;;;;;11.77;10.68;;;36.30;44.40;;;;;;5069745;28;20508;-60
2021/09/04 10:12:58;;;;;;;10.70;6.00;;;36.50;44.90;;;;;;5070433;28;20527;-60
2021/09/04 10:15:27;;;;;;;9.70;6.00;;;36.90;44.00;;;;;;5069749;28;20434;-62
2021/09/04 10:17:56;;;;;;;8.30;5.47;;;36.00;45.40;;;;;;5070534;28;20838;-60
2021/09/04 10:20:26;;;;;;;9.52;5.72;;;36.20;43.70;;;;;;5070170;28;20465;-60
2021/09/04 10:23:42;;;;;;;9.50;5.95;;;36.50;43.60;;;;;;5069636;28;20399;-60
2021/09/04 10:26:26;;;;;;;9.32;5.45;;;36.50;43.60;;;;;;5064245;28;20424;-61
2021/09/04 10:29:18;;;;;;;10.25;6.03;;;37.00;42.70;;;;;;5070400;28;20395;-61
2021/09/04 10:31:53;;;;;;;8.45;5.13;;;36.90;41.70;;;;;;5067059;28;20478;-61
2021/09/04 10:34:27;;;;;;;9.50;8.50;;;36.80;42.30;;;;;;5069508;28;20391;-60
2021/09/04 10:37:12;;;;;;;10.50;8.90;;;36.70;44.20;;;;;;5069965;28;20392;-60
2021/09/04 10:39:49;;;;;;;10.43;9.32;;;35.90;41.80;;;;;;5069674;28;20391;-60
2021/09/04 10:42:25;;;;;;;11.00;9.90;;;35.30;42.50;;;;;;5069101;28;20647;-60
2021/09/04 10:45:01;;;;;;;11.20;10.10;;;34.20;43.40;;;;;;5069841;28;20415;-60
2021/09/04 10:47:27;;;;;;;12.83;11.73;;;32.90;44.20;;;;;;5068840;28;20407;-60
2021/09/04 10:49:56;;;;;;;14.38;13.18;;;32.00;45.40;;;;;;5070287;28;20944;-60
2021/09/04 10:52:43;;;;;;;12.27;10.97;;;31.40;45.90;;;;;;5069371;28;20380;-60
2021/09/04 10:55:20;;;;;;;14.35;13.05;;;30.90;46.40;;;;;;5069282;28;20509;-59
2021/09/04 10:57:48;;;;;;;10.85;9.73;;;31.10;47.20;;;;;;5069644;28;20865;-60
2021/09/04 11:00:18;;;;;;;11.82;10.63;;;31.40;48.00;;;;;;5069108;28;20376;-60
2021/09/04 11:02:51;;;;;;;12.85;11.75;;;31.90;46.80;;;;;;5069654;28;20390;-59
2021/09/04 11:05:56;;;;;;;13.88;12.57;;;32.20;46.90;;;;;;5069215;28;20498;-60
2021/09/04 11:08:33;;;;;;;11.40;10.30;;;32.20;46.80;;;;;;5068774;28;20419;-59
2021/09/04 11:11:18;;;;;;;12.03;10.83;;;32.30;47.00;;;;;;5069734;28;20368;-59
2021/09/04 11:14:16;;;;;;;12.45;10.43;;;32.30;47.40;;;;;;5069164;28;20813;-61
2021/09/04 11:16:45;;;;;;;11.00;9.90;;;32.60;47.20;;;;;;5068958;28;20428;-60
2021/09/04 11:19:26;;;;;;;13.27;12.00;;;32.80;46.00;;;;;;5068738;28;20431;-60
2021/09/04 11:22:21;;;;;;;13.70;12.50;;;32.40;46.40;;;;;;5069433;28;20368;-60
2021/09/04 11:24:47;;;;;;;12.57;11.38;;;31.50;47.20;;;;;;5068050;28;20870;-60
2021/09/04 11:27:14;;;;;;;10.77;9.68;;;31.30;47.10;;;;;;5068724;28;20445;-60
2021/09/04 11:29:41;;;;;;;11.30;10.20;;;30.70;48.10;;;;;;5069299;28;20384;-60
2021/09/04 11:32:08;;;;;;;11.75;10.65;;;30.40;48.20;;;;;;5069001;28;20384;-60
2021/09/04 11:34:39;;;;;;;15.55;12.35;;;29.60;49.90;;;;;;5069702;28;20396;-60
2021/09/04 11:37:20;;;;;;;11.10;10.00;;;29.60;51.20;;;;;;5068827;28;20380;-60
2021/09/04 11:39:47;;;;;;;11.73;10.05;;;29.70;51.20;;;;;;5069600;28;20386;-60
2021/09/04 11:42:21;;;;;;;10.55;9.45;;;29.30;52.00;;;;;;5068391;28;20402;-60
2021/09/04 11:44:59;;;;;;;11.55;10.35;;;29.10;51.70;;;;;;5067988;28;20593;-60
2021/09/04 11:47:27;;;;;;;10.82;9.55;;;29.10;52.00;;;;;;5067942;28;20448;-60
2021/09/04 11:50:00;;;;;;;12.40;11.20;;;29.20;50.70;;;;;;5068150;28;20741;-60
2021/09/04 11:52:31;;;;;;;10.68;9.57;;;29.30;50.30;;;;;;5065812;28;20375;-60
2021/09/04 11:55:19;;;;;;;13.55;12.15;;;29.30;51.10;;;;;;5068550;28;20376;-60
2021/09/04 11:57:47;;;;;;;11.57;10.40;;;29.20;51.70;;;;;;5068616;28;20722;-60
2021/09/04 12:00:20;;;;;;;11.05;9.95;;;29.40;53.20;;;;;;5067909;28;20372;-60
2021/09/04 12:02:50;;;;;;;12.70;11.40;;;29.40;52.60;;;;;;5068779;28;20973;-60
2021/09/04 12:05:18;;;;;;;10.23;9.23;;;29.10;53.30;;;;;;5067972;28;20407;-59
2021/09/04 12:07:45;;;;;;;10.75;9.05;;;29.00;53.60;;;;;;5068146;28;20394;-59
2021/09/04 12:10:11;;;;;;;12.57;11.45;;;28.60;53.40;;;;;;5068264;28;20364;-59
2021/09/04 12:12:39;;;;;;;10.77;9.77;;;28.60;52.70;;;;;;5068636;28;20489;-59
2021/09/04 12:15:09;;;;;;;9.80;8.80;;;28.50;52.50;;;;;;5068505;28;20407;-60
2021/09/04 12:17:51;;;;;;;9.50;6.65;;;28.20;51.60;;;;;;5068085;28;20414;-60
2021/09/04 12:20:17;;;;;;;9.05;4.82;;;28.40;53.20;;;;;;5067911;28;20462;-59
2021/09/04 12:22:43;;;;;;;8.50;4.40;;;28.70;52.90;;;;;;5068495;28;20479;-60
2021/09/04 12:25:26;;;;;;;7.50;4.00;;;29.10;51.50;;;;;;5067622;28;21041;-59
2021/09/04 12:28:02;;;;;;;8.15;4.25;;;28.90;51.30;;;;;;5067643;28;20469;-59
2021/09/04 12:30:28;;;;;;;8.70;4.40;;;28.70;52.10;;;;;;5066404;28;20463;-60
2021/09/04 12:33:10;;;;;;;7.85;4.22;;;28.70;51.70;;;;;;5068599;28;20478;-62